createdAt,value
2022-11-15T00:00:50.912Z,101053.06
2022-11-15T00:03:23.294Z,101063.28
2022-11-15T00:05:50.475Z,101051.94
2022-11-15T00:08:17.440Z,101061.31
2022-11-15T00:10:44.366Z,101062.28
2022-11-15T00:13:13.486Z,101068.00
2022-11-15T00:15:41.696Z,101060.22
2022-11-15T00:18:13.685Z,101065.69
2022-11-15T00:20:40.334Z,101066.56
2022-11-15T00:23:07.503Z,101066.72
2022-11-15T00:25:34.160Z,101067.84
2022-11-15T00:28:01.344Z,101056.50
2022-11-15T00:30:28.882Z,101063.00
2022-11-15T00:32:55.711Z,101063.25
2022-11-15T00:35:22.387Z,101067.34
2022-11-15T00:37:48.965Z,101054.84
2022-11-15T00:40:15.788Z,101057.41
2022-11-15T00:42:42.737Z,101050.03
2022-11-15T00:45:10.084Z,101051.66
2022-11-15T00:47:36.462Z,101054.75
2022-11-15T00:50:03.052Z,101062.03
2022-11-15T00:52:29.375Z,101063.28
2022-11-15T00:54:55.732Z,101056.75
2022-11-15T00:57:22.067Z,101054.94
2022-11-15T00:59:48.828Z,101057.97
2022-11-15T01:02:15.164Z,101051.09
2022-11-15T01:04:41.816Z,101053.59
2022-11-15T01:07:08.298Z,101058.56
2022-11-15T01:09:34.672Z,101053.72
2022-11-15T01:12:01.110Z,101050.34
2022-11-15T01:14:27.505Z,101053.38
2022-11-15T01:16:53.854Z,101045.88
2022-11-15T01:19:20.234Z,101043.59
2022-11-15T01:21:46.602Z,101039.63
2022-11-15T01:24:14.044Z,101045.72
2022-11-15T01:26:40.509Z,101035.56
2022-11-15T01:29:06.931Z,101047.78
2022-11-15T01:31:33.267Z,101031.22
2022-11-15T01:33:59.647Z,101035.69
2022-11-15T01:36:26.042Z,101043.25
2022-11-15T01:38:58.250Z,101040.81
2022-11-15T01:41:34.400Z,101035.84
2022-11-15T01:44:40.361Z,101040.88
2022-11-15T01:47:32.055Z,101032.84
2022-11-15T01:50:13.236Z,101030.25
2022-11-15T01:52:41.336Z,101027.19
2022-11-15T01:55:19.998Z,101027.84
2022-11-15T01:57:49.944Z,101027.47
2022-11-15T02:00:16.818Z,101023.88
2022-11-15T02:02:43.922Z,101022.25
2022-11-15T02:05:10.890Z,101016.00
2022-11-15T02:07:37.471Z,101010.97
2022-11-15T02:10:13.684Z,101006.13
2022-11-15T02:12:40.578Z,101004.34
2022-11-15T02:15:09.089Z,101002.69
2022-11-15T02:17:52.867Z,101003.28
2022-11-15T02:20:42.119Z,101003.34
2022-11-15T02:23:33.922Z,101002.81
2022-11-15T02:26:41.813Z,101001.09
2022-11-15T02:29:12.644Z,100996.97
2022-11-15T02:32:16.523Z,101000.59
2022-11-15T02:34:55.835Z,100996.44
2022-11-15T02:37:35.696Z,100996.59
2022-11-15T02:40:18.124Z,100990.03
2022-11-15T02:43:10.394Z,100982.91
2022-11-15T02:45:40.974Z,100982.91
2022-11-15T02:48:09.024Z,100975.91
2022-11-15T02:50:35.717Z,100973.56
2022-11-15T02:53:02.936Z,100968.47
2022-11-15T02:55:30.590Z,100974.41
2022-11-15T02:58:09.029Z,100969.91
2022-11-15T03:00:39.884Z,100979.69
2022-11-15T03:03:38.138Z,100981.50
2022-11-15T03:06:23.051Z,100975.44
2022-11-15T03:09:10.512Z,100972.19
2022-11-15T03:11:42.111Z,100978.34
2022-11-15T03:14:08.853Z,100969.50
2022-11-15T03:16:45.753Z,100977.94
2022-11-15T03:19:35.326Z,100986.78
2022-11-15T03:22:06.447Z,100991.78
2022-11-15T03:24:38.087Z,100994.69
2022-11-15T03:27:07.829Z,100981.22
2022-11-15T03:29:42.891Z,100975.78
2022-11-15T03:32:19.709Z,100971.50
2022-11-15T03:34:54.101Z,100979.28
2022-11-15T03:37:25.375Z,100965.47
2022-11-15T03:39:51.947Z,100976.09
2022-11-15T03:42:45.908Z,100976.97
2022-11-15T03:45:24.250Z,100970.19
2022-11-15T03:47:59.620Z,100970.91
2022-11-15T03:50:27.007Z,100978.34
2022-11-15T03:52:55.217Z,100983.84
2022-11-15T03:55:22.196Z,100977.19
2022-11-15T03:57:52.129Z,100967.91
2022-11-15T04:00:18.694Z,100983.88
2022-11-15T04:02:45.386Z,100988.72
2022-11-15T04:05:11.750Z,100980.03
2022-11-15T04:07:38.159Z,100973.28
2022-11-15T04:10:05.123Z,100959.06
2022-11-15T04:12:33.274Z,100957.00
2022-11-15T04:15:10.357Z,100967.75
2022-11-15T04:17:50.670Z,100961.00
2022-11-15T04:20:45.179Z,100968.72
2022-11-15T04:23:34.280Z,100969.16
2022-11-15T04:26:06.725Z,100963.88
2022-11-15T04:28:33.083Z,100962.38
2022-11-15T04:30:59.507Z,100966.69
2022-11-15T04:33:26.383Z,100955.59
2022-11-15T04:36:11.241Z,100957.03
2022-11-15T04:38:38.259Z,100962.38
2022-11-15T04:41:04.820Z,100962.56
2022-11-15T04:43:31.570Z,100969.03
2022-11-15T04:45:58.291Z,100968.25
2022-11-15T04:48:24.653Z,100959.59
2022-11-15T04:50:51.000Z,100963.94
2022-11-15T04:53:17.378Z,100963.22
2022-11-15T04:55:47.389Z,100961.66
2022-11-15T04:58:14.331Z,100960.22
2022-11-15T05:00:40.893Z,100961.13
2022-11-15T05:03:26.027Z,100960.19
2022-11-15T05:05:52.440Z,100941.41
2022-11-15T05:08:18.805Z,100950.81
2022-11-15T05:10:45.507Z,100941.03
2022-11-15T05:13:12.259Z,100930.94
2022-11-15T05:15:38.617Z,100937.41
2022-11-15T05:18:05.113Z,100939.06
2022-11-15T05:20:31.465Z,100943.16
2022-11-15T05:22:58.257Z,100945.88
2022-11-15T05:25:25.196Z,100950.94
2022-11-15T05:27:51.822Z,100951.13
2022-11-15T05:30:18.244Z,100943.84
2022-11-15T05:32:45.337Z,100942.28
2022-11-15T05:35:19.763Z,100949.00
2022-11-15T05:37:46.092Z,100942.09
2022-11-15T05:40:12.481Z,100939.75
2022-11-15T05:42:38.916Z,100944.22
2022-11-15T05:45:07.288Z,100944.94
2022-11-15T05:47:36.363Z,100948.28
2022-11-15T05:50:02.905Z,100948.97
2022-11-15T05:52:35.604Z,100955.69
2022-11-15T05:55:03.841Z,100954.00
2022-11-15T05:57:30.239Z,100946.56
2022-11-15T05:59:57.135Z,100949.19
2022-11-15T06:02:23.579Z,100953.84
2022-11-15T06:04:49.967Z,100956.47
2022-11-15T06:07:16.460Z,100950.75
2022-11-15T06:09:43.256Z,100955.81
2022-11-15T06:12:09.576Z,100960.81
2022-11-15T06:14:35.945Z,100950.78
2022-11-15T06:17:07.244Z,100960.38
2022-11-15T06:19:36.496Z,100962.53
2022-11-15T06:22:02.981Z,100953.16
2022-11-15T06:24:29.349Z,100964.44
2022-11-15T06:26:55.702Z,100964.34
2022-11-15T06:29:22.068Z,100959.19
2022-11-15T06:31:48.400Z,100951.38
2022-11-15T06:34:14.782Z,100957.44
2022-11-15T06:36:41.113Z,100964.53
2022-11-15T06:39:07.498Z,100962.75
2022-11-15T06:41:37.066Z,100967.91
2022-11-15T06:44:04.269Z,100962.19
2022-11-15T06:46:30.617Z,100965.72
2022-11-15T06:48:56.999Z,100977.53
2022-11-15T06:51:23.344Z,100974.34
2022-11-15T06:53:49.868Z,100976.28
2022-11-15T06:56:16.239Z,100968.22
2022-11-15T06:58:42.614Z,100973.38
2022-11-15T07:01:11.376Z,100974.38
2022-11-15T07:03:41.595Z,100977.53
2022-11-15T07:06:09.426Z,100973.38
2022-11-15T07:08:36.267Z,100977.72
2022-11-15T07:11:05.083Z,100992.31
2022-11-15T07:13:36.666Z,100995.88
2022-11-15T07:16:05.488Z,100985.50
2022-11-15T07:18:34.306Z,100990.88
2022-11-15T07:21:09.403Z,100997.16
2022-11-15T07:23:40.119Z,100996.00
2022-11-15T07:26:07.845Z,100994.25
2022-11-15T07:28:34.707Z,100980.34
2022-11-15T07:31:09.393Z,100992.41
2022-11-15T07:33:36.872Z,100980.44
2022-11-15T07:36:05.699Z,100981.38
2022-11-15T07:38:34.166Z,100981.53
2022-11-15T07:41:05.077Z,100981.81
2022-11-15T07:43:33.814Z,100979.47
2022-11-15T07:46:05.878Z,100977.06
2022-11-15T07:48:43.237Z,100976.28
2022-11-15T07:51:15.277Z,100978.91
2022-11-15T07:53:43.074Z,100975.56
2022-11-15T07:56:10.250Z,100970.63
2022-11-15T07:58:36.665Z,100977.72
2022-11-15T08:01:05.104Z,100981.31
2022-11-15T08:03:31.764Z,100982.09
2022-11-15T08:05:58.567Z,100987.47
2022-11-15T08:08:24.945Z,100981.41
2022-11-15T08:10:51.700Z,100986.69
2022-11-15T08:13:18.309Z,100990.88
2022-11-15T08:15:45.204Z,100991.06
2022-11-15T08:18:14.547Z,100985.72
2022-11-15T08:20:41.867Z,100992.63
2022-11-15T08:23:09.181Z,100980.63
2022-11-15T08:25:36.640Z,100984.16
2022-11-15T08:28:06.046Z,100980.13
2022-11-15T08:30:37.308Z,100970.53
2022-11-15T08:33:03.816Z,100976.81
2022-11-15T08:35:30.211Z,100975.94
2022-11-15T08:37:56.530Z,100975.25
2022-11-15T08:40:23.692Z,100979.50
2022-11-15T08:42:50.191Z,100972.56
2022-11-15T08:45:16.576Z,100974.44
2022-11-15T08:47:42.902Z,100974.56
2022-11-15T08:50:09.760Z,100972.97
2022-11-15T08:52:36.128Z,100966.81
2022-11-15T08:55:02.497Z,100978.03
2022-11-15T08:57:32.020Z,100985.59
2022-11-15T08:59:58.944Z,100985.69
2022-11-15T09:02:25.334Z,100988.00
2022-11-15T09:04:51.744Z,100988.22
2022-11-15T09:07:18.696Z,100979.59
2022-11-15T09:09:45.157Z,100984.09
2022-11-15T09:12:11.728Z,100979.88
2022-11-15T09:14:38.107Z,100988.44
2022-11-15T09:17:04.479Z,100980.03
2022-11-15T09:19:30.812Z,100980.03
2022-11-15T09:21:57.600Z,100985.69
2022-11-15T09:24:23.965Z,100978.09
2022-11-15T09:26:52.186Z,100968.88
2022-11-15T09:29:19.317Z,100972.66
2022-11-15T09:31:46.144Z,100978.84
2022-11-15T09:34:12.865Z,100980.84
2022-11-15T09:36:39.388Z,100977.28
2022-11-15T09:39:05.718Z,100968.88
2022-11-15T09:42:00.034Z,100981.09
2022-11-15T09:44:47.423Z,100979.44
2022-11-15T09:47:50.545Z,100986.34
2022-11-15T09:50:36.398Z,100985.47
2022-11-15T09:53:02.949Z,100983.88
2022-11-15T09:55:51.519Z,100986.53
2022-11-15T09:58:34.144Z,100991.59
2022-11-15T10:01:07.748Z,100987.97
2022-11-15T10:03:42.718Z,100987.06
2022-11-15T10:06:22.779Z,100982.66
2022-11-15T10:08:57.563Z,100986.84
2022-11-15T10:11:42.715Z,100985.19
2022-11-15T10:14:16.271Z,100980.19
2022-11-15T10:16:56.700Z,100981.06
2022-11-15T10:19:46.468Z,100976.75
2022-11-15T10:22:30.890Z,100977.47
2022-11-15T10:25:09.517Z,100966.22
2022-11-15T10:27:36.858Z,100962.91
2022-11-15T10:30:15.012Z,100961.22
2022-11-15T10:32:43.991Z,100973.34
2022-11-15T10:35:19.465Z,100970.66
2022-11-15T10:37:45.806Z,100961.09
2022-11-15T10:40:20.062Z,100959.50
2022-11-15T10:42:46.787Z,100950.19
2022-11-15T10:45:33.908Z,100953.91
2022-11-15T10:48:12.464Z,100948.84
2022-11-15T10:50:44.269Z,100949.84
2022-11-15T10:53:23.716Z,100951.28
2022-11-15T10:55:53.352Z,100948.84
2022-11-15T10:58:32.895Z,100947.78
2022-11-15T11:01:11.104Z,100939.97
2022-11-15T11:03:40.050Z,100933.00
2022-11-15T11:06:10.872Z,100933.69
2022-11-15T11:08:37.658Z,100936.38
2022-11-15T11:11:06.136Z,100928.63
2022-11-15T11:13:40.838Z,100924.50
2022-11-15T11:16:22.728Z,100925.66
2022-11-15T11:19:33.785Z,100916.09
2022-11-15T11:22:18.695Z,100916.34
2022-11-15T11:24:55.774Z,100920.69
2022-11-15T11:27:44.539Z,100907.06
2022-11-15T11:30:17.704Z,100908.38
2022-11-15T11:33:09.371Z,100893.06
2022-11-15T11:35:55.122Z,100892.38
2022-11-15T11:38:45.839Z,100886.53
2022-11-15T11:41:51.284Z,100889.28
2022-11-15T11:44:47.855Z,100885.16
2022-11-15T11:47:25.727Z,100880.97
2022-11-15T11:50:00.115Z,100881.03
2022-11-15T11:52:36.132Z,100881.06
2022-11-15T11:55:24.133Z,100882.06
2022-11-15T11:58:12.319Z,100869.25
2022-11-15T12:00:44.495Z,100877.16
2022-11-15T12:03:27.084Z,100868.28
2022-11-15T12:06:10.528Z,100882.09
2022-11-15T12:08:46.739Z,100874.31
2022-11-15T12:11:23.362Z,100873.47
2022-11-15T12:13:55.601Z,100866.69
2022-11-15T12:16:29.061Z,100871.75
2022-11-15T12:18:59.923Z,100863.88
2022-11-15T12:21:44.995Z,100863.94
2022-11-15T12:24:32.971Z,100862.19
2022-11-15T12:27:28.207Z,100860.53
2022-11-15T12:29:59.166Z,100860.44
2022-11-15T12:32:30.326Z,100863.75
2022-11-15T12:34:58.577Z,100852.78
2022-11-15T12:37:48.408Z,100855.25
2022-11-15T12:40:22.924Z,100849.38
2022-11-15T12:43:15.451Z,100840.81
2022-11-15T12:45:46.693Z,100852.03
2022-11-15T12:48:19.073Z,100847.69
2022-11-15T12:50:51.694Z,100834.78
2022-11-15T12:53:27.691Z,100833.19
2022-11-15T12:56:13.458Z,100829.66
2022-11-15T12:58:49.689Z,100827.09
2022-11-15T13:01:34.332Z,100822.09
2022-11-15T13:04:19.645Z,100825.53
2022-11-15T13:06:58.424Z,100815.16
2022-11-15T13:09:37.046Z,100809.22
2022-11-15T13:12:15.401Z,100805.88
2022-11-15T13:14:44.171Z,100799.81
2022-11-15T13:17:19.967Z,100803.31
2022-11-15T13:19:59.716Z,100805.16
2022-11-15T13:22:46.295Z,100807.88
2022-11-15T13:25:21.785Z,100789.78
2022-11-15T13:27:51.998Z,100792.44
2022-11-15T13:30:30.148Z,100796.75
2022-11-15T13:32:59.604Z,100786.41
2022-11-15T13:35:28.268Z,100796.81
2022-11-15T13:37:56.399Z,100792.63
2022-11-15T13:40:35.114Z,100789.19
2022-11-15T13:43:23.958Z,100784.13
2022-11-15T13:46:06.274Z,100773.81
2022-11-15T13:48:34.789Z,100770.28
2022-11-15T13:51:05.949Z,100765.84
2022-11-15T13:53:39.273Z,100766.72
2022-11-15T13:56:06.670Z,100765.00
2022-11-15T13:58:34.190Z,100778.75
2022-11-15T14:01:03.796Z,100774.56
2022-11-15T14:03:38.762Z,100780.56
2022-11-15T14:06:21.364Z,100776.19
2022-11-15T14:09:30.005Z,100774.53
2022-11-15T14:11:57.647Z,100765.91
2022-11-15T14:14:26.455Z,100764.00
2022-11-15T14:16:56.081Z,100756.38
2022-11-15T14:19:22.356Z,100765.84
2022-11-15T14:22:12.530Z,100760.59
2022-11-15T14:24:39.615Z,100769.16
2022-11-15T14:27:28.106Z,100765.63
2022-11-15T14:29:54.814Z,100774.25
2022-11-15T14:32:30.125Z,100769.00
2022-11-15T14:35:02.041Z,100770.75
2022-11-15T14:37:34.372Z,100772.44
2022-11-15T14:40:03.801Z,100774.91
2022-11-15T14:42:30.186Z,100766.25
2022-11-15T14:44:56.759Z,100762.69
2022-11-15T14:47:23.198Z,100758.31
2022-11-15T14:49:49.608Z,100756.59
2022-11-15T14:52:31.795Z,100755.66
2022-11-15T14:55:00.224Z,100756.50
2022-11-15T14:57:26.681Z,100756.53
2022-11-15T14:59:53.131Z,100762.44
2022-11-15T15:02:25.121Z,100759.09
2022-11-15T15:04:52.180Z,100759.19
2022-11-15T15:07:18.813Z,100762.56
2022-11-15T15:09:46.477Z,100775.47
2022-11-15T15:12:18.836Z,100776.28
2022-11-15T15:14:47.425Z,100773.66
2022-11-15T15:17:14.071Z,100771.88
2022-11-15T15:19:40.549Z,100775.38
2022-11-15T15:22:07.214Z,100770.97
2022-11-15T15:24:33.683Z,100771.00
2022-11-15T15:27:00.055Z,100770.09
2022-11-15T15:29:26.402Z,100763.91
2022-11-15T15:31:52.788Z,100761.09
2022-11-15T15:34:19.123Z,100754.19
2022-11-15T15:36:45.547Z,100757.41
2022-11-15T15:39:12.822Z,100754.91
2022-11-15T15:41:39.576Z,100752.16
2022-11-15T15:44:05.900Z,100754.56
2022-11-15T15:46:32.267Z,100751.75
2022-11-15T15:48:58.605Z,100745.78
2022-11-15T15:51:24.991Z,100753.47
2022-11-15T15:53:53.585Z,100748.22
2022-11-15T15:56:19.976Z,100749.66
2022-11-15T15:58:46.302Z,100743.69
2022-11-15T16:01:12.832Z,100745.38
2022-11-15T16:03:39.320Z,100742.03
2022-11-15T16:06:06.487Z,100735.28
2022-11-15T16:08:47.571Z,100729.22
2022-11-15T16:11:14.387Z,100720.75
2022-11-15T16:13:40.740Z,100717.47
2022-11-15T16:16:13.782Z,100716.88
2022-11-15T16:18:40.110Z,100707.50
2022-11-15T16:21:06.555Z,100711.72
2022-11-15T16:23:32.927Z,100708.41
2022-11-15T16:25:59.597Z,100709.41
2022-11-15T16:28:31.369Z,100704.91
2022-11-15T16:31:09.226Z,100704.78
2022-11-15T16:33:36.308Z,100703.09
2022-11-15T16:36:03.682Z,100697.13
2022-11-15T16:38:30.613Z,100696.19
2022-11-15T16:40:57.340Z,100702.34
2022-11-15T16:43:23.783Z,100696.50
2022-11-15T16:45:53.234Z,100692.13
2022-11-15T16:48:28.650Z,100695.66
2022-11-15T16:50:57.337Z,100695.50
2022-11-15T16:53:24.127Z,100699.97
2022-11-15T16:55:50.469Z,100700.78
2022-11-15T16:58:16.852Z,100706.84
2022-11-15T17:00:43.220Z,100705.94
2022-11-15T17:03:09.637Z,100704.28
2022-11-15T17:05:35.980Z,100699.72
2022-11-15T17:08:02.357Z,100694.56
2022-11-15T17:10:28.755Z,100689.16
2022-11-15T17:12:55.926Z,100690.09
2022-11-15T17:15:24.403Z,100684.19
2022-11-15T17:17:53.075Z,100677.22
2022-11-15T17:20:22.186Z,100685.81
2022-11-15T17:22:48.895Z,100682.34
2022-11-15T17:25:15.361Z,100684.91
2022-11-15T17:27:41.728Z,100675.31
2022-11-15T17:30:10.183Z,100679.72
2022-11-15T17:32:37.523Z,100679.69
2022-11-15T17:35:12.002Z,100672.72
2022-11-15T17:37:40.318Z,100676.13
2022-11-15T17:40:07.399Z,100666.66
2022-11-15T17:42:33.837Z,100665.66
2022-11-15T17:45:01.928Z,100663.94
2022-11-15T17:47:31.607Z,100663.94
2022-11-15T17:49:57.947Z,100665.00
2022-11-15T17:52:24.335Z,100658.84
2022-11-15T17:54:50.658Z,100662.31
2022-11-15T17:57:17.289Z,100664.13
2022-11-15T17:59:43.618Z,100654.66
2022-11-15T18:02:10.132Z,100658.91
2022-11-15T18:04:36.446Z,100646.88
2022-11-15T18:07:02.828Z,100653.84
2022-11-15T18:09:29.497Z,100641.81
2022-11-15T18:11:55.868Z,100641.00
2022-11-15T18:14:22.287Z,100630.72
2022-11-15T18:16:48.653Z,100640.81
2022-11-15T18:19:15.133Z,100632.34
2022-11-15T18:21:59.116Z,100636.66
2022-11-15T18:24:36.655Z,100634.06
2022-11-15T18:27:05.421Z,100627.22
2022-11-15T18:29:33.255Z,100634.09
2022-11-15T18:32:00.690Z,100626.38
2022-11-15T18:34:33.571Z,100620.50
2022-11-15T18:37:02.586Z,100617.06
2022-11-15T18:39:29.222Z,100624.69
2022-11-15T18:41:55.907Z,100624.63
2022-11-15T18:44:22.644Z,100615.00
2022-11-15T18:46:50.891Z,100609.84
2022-11-15T18:49:17.852Z,100618.47
2022-11-15T18:51:44.368Z,100615.06
2022-11-15T18:54:13.141Z,100615.88
2022-11-15T18:56:41.482Z,100603.75
2022-11-15T18:59:08.783Z,100605.34
2022-11-15T19:01:40.035Z,100594.22
2022-11-15T19:04:15.753Z,100599.47
2022-11-15T19:06:43.723Z,100596.78
2022-11-15T19:09:13.914Z,100605.22
2022-11-15T19:11:40.403Z,100599.91
2022-11-15T19:14:08.758Z,100597.34
2022-11-15T19:16:44.742Z,100599.06
2022-11-15T19:19:16.081Z,100597.31
2022-11-15T19:21:43.041Z,100605.84
2022-11-15T19:24:10.505Z,100599.88
2022-11-15T19:26:37.824Z,100603.22
2022-11-15T19:29:05.725Z,100599.88
2022-11-15T19:31:32.761Z,100607.69
2022-11-15T19:34:00.825Z,100609.34
2022-11-15T19:36:31.892Z,100609.31
2022-11-15T19:39:00.525Z,100612.81
2022-11-15T19:41:26.981Z,100604.34
2022-11-15T19:43:53.558Z,100605.88
2022-11-15T19:46:23.430Z,100604.03
2022-11-15T19:48:51.441Z,100598.13
2022-11-15T19:51:21.543Z,100599.13
2022-11-15T19:53:49.219Z,100594.06
2022-11-15T19:56:17.594Z,100582.00
2022-11-15T19:58:44.736Z,100586.41
2022-11-15T20:01:21.733Z,100583.75
2022-11-15T20:03:50.081Z,100581.25
2022-11-15T20:06:18.635Z,100583.84
2022-11-15T20:08:46.914Z,100590.78
2022-11-15T20:11:14.494Z,100587.47
2022-11-15T20:13:42.210Z,100590.06
2022-11-15T20:16:10.643Z,100594.31
2022-11-15T20:18:37.236Z,100596.94
2022-11-15T20:21:06.226Z,100588.28
2022-11-15T20:23:33.268Z,100574.47
2022-11-15T20:25:59.612Z,100584.84
2022-11-15T20:28:27.705Z,100580.47
2022-11-15T20:30:56.601Z,100585.66
2022-11-15T20:33:23.679Z,100578.84
2022-11-15T20:35:50.249Z,100586.53
2022-11-15T20:38:17.415Z,100579.72
2022-11-15T20:40:48.367Z,100579.69
2022-11-15T20:43:16.561Z,100580.50
2022-11-15T20:45:44.562Z,100577.06
2022-11-15T20:48:14.032Z,100577.16
2022-11-15T20:50:43.277Z,100574.53
2022-11-15T20:53:12.361Z,100566.75
2022-11-15T20:55:40.893Z,100569.25
2022-11-15T20:58:07.730Z,100564.91
2022-11-15T21:00:34.108Z,100560.59
2022-11-15T21:03:00.473Z,100561.44
2022-11-15T21:05:26.981Z,100570.06
2022-11-15T21:07:53.398Z,100561.38
2022-11-15T21:10:38.407Z,100558.84
2022-11-15T21:13:04.772Z,100561.34
2022-11-15T21:15:33.412Z,100560.50
2022-11-15T21:17:59.936Z,100551.00
2022-11-15T21:20:26.839Z,100550.13
2022-11-15T21:22:53.267Z,100550.94
2022-11-15T21:25:19.619Z,100539.81
2022-11-15T21:27:45.991Z,100538.06
2022-11-15T21:30:12.627Z,100537.19
2022-11-15T21:32:39.134Z,100544.00
2022-11-15T21:35:06.045Z,100541.44
2022-11-15T21:37:32.395Z,100538.00
2022-11-15T21:39:58.762Z,100537.13
2022-11-15T21:42:25.104Z,100524.16
2022-11-15T21:44:51.876Z,100528.44
2022-11-15T21:47:18.214Z,100537.91
2022-11-15T21:49:44.624Z,100539.69
2022-11-15T21:52:11.014Z,100536.13
2022-11-15T21:54:39.472Z,100531.91
2022-11-15T21:57:05.807Z,100541.28
2022-11-15T21:59:32.244Z,100539.69
2022-11-15T22:02:17.048Z,100530.03
2022-11-15T22:04:43.410Z,100534.44
2022-11-15T22:07:09.782Z,100530.97
2022-11-15T22:09:36.810Z,100528.34
2022-11-15T22:12:03.315Z,100523.19
2022-11-15T22:14:29.679Z,100532.66
2022-11-15T22:16:56.005Z,100519.72
2022-11-15T22:19:22.583Z,100513.78
2022-11-15T22:21:48.898Z,100517.97
2022-11-15T22:24:15.269Z,100507.66
2022-11-15T22:26:41.627Z,100519.78
2022-11-15T22:29:08.440Z,100514.53
2022-11-15T22:31:34.886Z,100514.53
2022-11-15T22:34:01.315Z,100505.03
2022-11-15T22:36:38.671Z,100509.31
2022-11-15T22:39:13.579Z,100508.41
2022-11-15T22:41:39.911Z,100504.16
2022-11-15T22:44:06.432Z,100505.84
2022-11-15T22:46:32.785Z,100513.56
2022-11-15T22:49:03.206Z,100504.03
2022-11-15T22:51:29.903Z,100509.19
2022-11-15T22:53:56.271Z,100507.53
2022-11-15T22:56:22.663Z,100511.84
2022-11-15T22:58:49.033Z,100507.69
2022-11-15T23:01:20.751Z,100506.78
2022-11-15T23:03:47.473Z,100513.59
2022-11-15T23:06:13.916Z,100505.78
2022-11-15T23:08:40.594Z,100492.13
2022-11-15T23:11:28.884Z,100502.31
2022-11-15T23:13:55.619Z,100493.69
2022-11-15T23:16:23.298Z,100494.47
2022-11-15T23:18:54.444Z,100492.78
2022-11-15T23:21:43.017Z,100497.09
2022-11-15T23:24:11.785Z,100508.25
2022-11-15T23:26:38.548Z,100505.63
2022-11-15T23:29:06.239Z,100507.31
2022-11-15T23:32:01.136Z,100496.88
2022-11-15T23:34:29.220Z,100489.13
2022-11-15T23:36:55.607Z,100486.47
2022-11-15T23:39:22.362Z,100481.25
2022-11-15T23:41:48.750Z,100467.28
2022-11-15T23:44:15.650Z,100469.06
2022-11-15T23:46:42.048Z,100467.19
2022-11-15T23:49:08.561Z,100466.25
2022-11-15T23:51:34.898Z,100464.44
2022-11-15T23:54:01.277Z,100463.56
2022-11-15T23:56:27.847Z,100459.88
2022-11-15T23:58:54.215Z,100465.06
